sensor_id;sensor_type;location;lat;lon;timestamp;pressure;altitude;pressure_sealevel;temperature;humidity
7888;BME280;3989;48.810;9.208;2023-04-10T00:01:47;99439.06;;;3.77;100.00
7888;BME280;3989;48.810;9.208;2023-04-10T00:04:13;99453.09;;;3.88;100.00
7888;BME280;3989;48.810;9.208;2023-04-10T00:06:42;99419.38;;;3.69;100.00
7888;BME280;3989;48.810;9.208;2023-04-10T00:09:08;99367.81;;;3.32;100.00
7888;BME280;3989;48.810;9.208;2023-04-10T00:11:35;99429.69;;;3.72;100.00
7888;BME280;3989;48.810;9.208;2023-04-10T00:14:02;99440.25;;;3.72;100.00
7888;BME280;3989;48.810;9.208;2023-04-10T00:16:28;99429.97;;;3.58;100.00
7888;BME280;3989;48.810;9.208;2023-04-10T00:18:55;99404.75;;;3.32;100.00
7888;BME280;3989;48.810;9.208;2023-04-10T00:21:21;99394.75;;;3.25;100.00
7888;BME280;3989;48.810;9.208;2023-04-10T00:23:49;99370.06;;;3.03;100.00
7888;BME280;3989;48.810;9.208;2023-04-10T00:26:16;99415.41;;;3.31;100.00
7888;BME280;3989;48.810;9.208;2023-04-10T00:28:42;99436.63;;;3.40;100.00
7888;BME280;3989;48.810;9.208;2023-04-10T00:31:09;99416.00;;;3.23;100.00
7888;BME280;3989;48.810;9.208;2023-04-10T00:33:35;99378.56;;;3.07;100.00
7888;BME280;3989;48.810;9.208;2023-04-10T00:36:02;99432.34;;;3.39;100.00
7888;BME280;3989;48.810;9.208;2023-04-10T00:38:29;99333.44;;;2.77;100.00
7888;BME280;3989;48.810;9.208;2023-04-10T00:40:57;99409.03;;;3.22;100.00
7888;BME280;3989;48.810;9.208;2023-04-10T00:43:24;99408.75;;;3.14;100.00
7888;BME280;3989;48.810;9.208;2023-04-10T00:45:50;99423.78;;;3.25;100.00
7888;BME280;3989;48.810;9.208;2023-04-10T00:48:17;99433.00;;;3.19;100.00
7888;BME280;3989;48.810;9.208;2023-04-10T00:50:44;99385.81;;;2.92;100.00
7888;BME280;3989;48.810;9.208;2023-04-10T00:53:11;99383.53;;;2.88;100.00
7888;BME280;3989;48.810;9.208;2023-04-10T00:55:38;99398.91;;;2.94;100.00
7888;BME280;3989;48.810;9.208;2023-04-10T00:58:08;99419.91;;;3.06;100.00
7888;BME280;3989;48.810;9.208;2023-04-10T01:00:38;99419.78;;;2.97;100.00
7888;BME280;3989;48.810;9.208;2023-04-10T01:03:06;99413.88;;;2.93;100.00
7888;BME280;3989;48.810;9.208;2023-04-10T01:05:40;99436.06;;;2.91;100.00
7888;BME280;3989;48.810;9.208;2023-04-10T01:08:11;99420.78;;;2.83;100.00
7888;BME280;3989;48.810;9.208;2023-04-10T01:10:50;99397.38;;;2.68;100.00
7888;BME280;3989;48.810;9.208;2023-04-10T01:13:40;99387.19;;;2.63;100.00
7888;BME280;3989;48.810;9.208;2023-04-10T01:16:14;99408.69;;;2.81;100.00
7888;BME280;3989;48.810;9.208;2023-04-10T01:22:02;99418.41;;;2.80;100.00
7888;BME280;3989;48.810;9.208;2023-04-10T01:25:00;99404.06;;;2.60;100.00
7888;BME280;3989;48.810;9.208;2023-04-10T01:28:10;99425.53;;;2.67;100.00
7888;BME280;3989;48.810;9.208;2023-04-10T01:37:30;99404.28;;;2.34;100.00
7888;BME280;3989;48.810;9.208;2023-04-10T01:43:29;99414.19;;;2.30;100.00
7888;BME280;3989;48.810;9.208;2023-04-10T01:46:34;99420.44;;;2.29;100.00
7888;BME280;3989;48.810;9.208;2023-04-10T01:49:42;99346.16;;;1.77;100.00
7888;BME280;3989;48.810;9.208;2023-04-10T02:40:32;99137.44;;;0.32;100.00
7888;BME280;3989;48.810;9.208;2023-04-10T02:43:16;99245.56;;;0.88;100.00
7888;BME280;3989;48.810;9.208;2023-04-10T02:45:57;99251.66;;;0.88;100.00
7888;BME280;3989;48.810;9.208;2023-04-10T02:48:41;99091.84;;;0.21;100.00
7888;BME280;3989;48.810;9.208;2023-04-10T02:51:25;99343.00;;;1.72;100.00
7888;BME280;3989;48.810;9.208;2023-04-10T02:54:11;99302.94;;;1.32;100.00
7888;BME280;3989;48.810;9.208;2023-04-10T02:56:51;99217.22;;;0.68;100.00
7888;BME280;3989;48.810;9.208;2023-04-10T02:59:21;99142.25;;;0.13;100.00
7888;BME280;3989;48.810;9.208;2023-04-10T03:01:56;99152.94;;;0.23;100.00
7888;BME280;3989;48.810;9.208;2023-04-10T03:04:38;99256.28;;;0.85;100.00
7888;BME280;3989;48.810;9.208;2023-04-10T03:07:13;99251.03;;;0.85;100.00
7888;BME280;3989;48.810;9.208;2023-04-10T03:09:42;99177.94;;;0.53;100.00
7888;BME280;3989;48.810;9.208;2023-04-10T03:21:02;99110.84;;;-0.26;100.00
7888;BME280;3989;48.810;9.208;2023-04-10T03:23:34;99407.56;;;1.65;100.00
7888;BME280;3989;48.810;9.208;2023-04-10T03:26:03;99408.28;;;1.67;100.00
7888;BME280;3989;48.810;9.208;2023-04-10T03:28:30;99424.97;;;1.78;100.00
7888;BME280;3989;48.810;9.208;2023-04-10T03:31:01;99201.69;;;0.65;100.00
7888;BME280;3989;48.810;9.208;2023-04-10T03:33:30;99344.41;;;1.52;100.00
7888;BME280;3989;48.810;9.208;2023-04-10T03:39:16;99354.00;;;1.53;100.00
7888;BME280;3989;48.810;9.208;2023-04-10T03:41:50;99321.66;;;1.27;100.00
7888;BME280;3989;48.810;9.208;2023-04-10T03:44:17;99162.72;;;0.21;100.00
7888;BME280;3989;48.810;9.208;2023-04-10T03:46:47;99158.09;;;0.24;100.00
7888;BME280;3989;48.810;9.208;2023-04-10T03:49:15;99073.38;;;-0.16;100.00
7888;BME280;3989;48.810;9.208;2023-04-10T03:51:42;99074.44;;;-0.18;100.00
7888;BME280;3989;48.810;9.208;2023-04-10T03:54:11;99085.47;;;-0.13;100.00
7888;BME280;3989;48.810;9.208;2023-04-10T03:56:57;99322.91;;;1.34;100.00
7888;BME280;3989;48.810;9.208;2023-04-10T03:59:24;99317.44;;;1.25;100.00
7888;BME280;3989;48.810;9.208;2023-04-10T04:01:52;99222.59;;;0.53;100.00
7888;BME280;3989;48.810;9.208;2023-04-10T04:04:21;99306.31;;;1.21;100.00
7888;BME280;3989;48.810;9.208;2023-04-10T04:06:52;99196.75;;;0.47;100.00
7888;BME280;3989;48.810;9.208;2023-04-10T04:09:20;99186.25;;;0.47;100.00
7888;BME280;3989;48.810;9.208;2023-04-10T04:11:53;99071.41;;;-0.25;100.00
7888;BME280;3989;48.810;9.208;2023-04-10T04:14:21;99128.59;;;-0.05;100.00
7888;BME280;3989;48.810;9.208;2023-04-10T04:16:51;99120.00;;;-0.07;100.00
7888;BME280;3989;48.810;9.208;2023-04-10T04:19:21;99312.63;;;1.06;100.00
7888;BME280;3989;48.810;9.208;2023-04-10T04:21:50;99083.25;;;-0.19;100.00
7888;BME280;3989;48.810;9.208;2023-04-10T04:24:21;99108.88;;;-0.10;100.00
7888;BME280;3989;48.810;9.208;2023-04-10T04:26:49;99200.09;;;0.37;100.00
7888;BME280;3989;48.810;9.208;2023-04-10T04:29:18;99217.63;;;0.62;100.00
7888;BME280;3989;48.810;9.208;2023-04-10T04:31:46;99110.13;;;-0.16;100.00
7888;BME280;3989;48.810;9.208;2023-04-10T04:34:15;99100.69;;;-0.06;100.00
7888;BME280;3989;48.810;9.208;2023-04-10T04:37:02;99043.91;;;-0.44;100.00
7888;BME280;3989;48.810;9.208;2023-04-10T04:39:30;99380.69;;;1.72;100.00
7888;BME280;3989;48.810;9.208;2023-04-10T04:41:58;99069.75;;;-0.13;100.00
7888;BME280;3989;48.810;9.208;2023-04-10T04:44:48;99289.47;;;1.24;100.00
7888;BME280;3989;48.810;9.208;2023-04-10T04:47:27;99181.06;;;0.59;100.00
7888;BME280;3989;48.810;9.208;2023-04-10T04:50:08;99289.00;;;1.42;100.00
7888;BME280;3989;48.810;9.208;2023-04-10T04:52:38;99080.28;;;0.23;100.00
7888;BME280;3989;48.810;9.208;2023-04-10T04:55:08;99304.88;;;1.53;100.00
7888;BME280;3989;48.810;9.208;2023-04-10T04:57:36;99277.75;;;1.40;100.00
7888;BME280;3989;48.810;9.208;2023-04-10T05:00:32;99153.44;;;0.66;100.00
7888;BME280;3989;48.810;9.208;2023-04-10T05:03:12;99077.59;;;0.12;100.00
7888;BME280;3989;48.810;9.208;2023-04-10T05:05:46;99308.19;;;1.68;100.00
7888;BME280;3989;48.810;9.208;2023-04-10T05:08:28;99204.56;;;0.98;100.00
7888;BME280;3989;48.810;9.208;2023-04-10T05:13:48;99268.63;;;1.70;100.00
7888;BME280;3989;48.810;9.208;2023-04-10T05:16:19;99211.97;;;1.53;100.00
7888;BME280;3989;48.810;9.208;2023-04-10T05:18:47;99372.44;;;2.60;100.00
7888;BME280;3989;48.810;9.208;2023-04-10T05:21:14;99091.38;;;0.88;100.00
7888;BME280;3989;48.810;9.208;2023-04-10T05:23:42;99365.78;;;2.79;100.00
7888;BME280;3989;48.810;9.208;2023-04-10T05:26:11;99393.25;;;2.87;100.00
7888;BME280;3989;48.810;9.208;2023-04-10T05:28:38;99299.13;;;2.54;100.00
7888;BME280;3989;48.810;9.208;2023-04-10T05:31:06;99225.13;;;2.11;100.00
7888;BME280;3989;48.810;9.208;2023-04-10T05:33:36;99125.81;;;1.68;100.00
7888;BME280;3989;48.810;9.208;2023-04-10T05:36:06;99092.13;;;1.49;100.00
7888;BME280;3989;48.810;9.208;2023-04-10T05:38:34;99250.75;;;2.67;100.00
7888;BME280;3989;48.810;9.208;2023-04-10T05:41:02;99173.38;;;2.45;100.00
7888;BME280;3989;48.810;9.208;2023-04-10T05:43:31;99162.09;;;2.43;100.00
7888;BME280;3989;48.810;9.208;2023-04-10T05:45:59;99223.81;;;3.07;100.00
7888;BME280;3989;48.810;9.208;2023-04-10T05:48:31;99287.19;;;3.50;100.00
7888;BME280;3989;48.810;9.208;2023-04-10T05:51:06;99382.69;;;4.20;100.00
7888;BME280;3989;48.810;9.208;2023-04-10T05:53:42;99234.41;;;3.50;100.00
7888;BME280;3989;48.810;9.208;2023-04-10T05:56:16;99181.56;;;3.41;100.00
7888;BME280;3989;48.810;9.208;2023-04-10T05:58:47;99300.16;;;4.39;100.00
7888;BME280;3989;48.810;9.208;2023-04-10T06:01:22;99399.56;;;5.04;100.00
7888;BME280;3989;48.810;9.208;2023-04-10T06:03:52;99175.13;;;3.97;100.00
7888;BME280;3989;48.810;9.208;2023-04-10T06:06:32;99375.47;;;5.27;100.00
7888;BME280;3989;48.810;9.208;2023-04-10T06:09:15;99394.19;;;5.36;100.00
7888;BME280;3989;48.810;9.208;2023-04-10T06:11:56;99226.78;;;4.52;100.00
7888;BME280;3989;48.810;9.208;2023-04-10T06:14:39;99217.31;;;4.50;100.00
7888;BME280;3989;48.810;9.208;2023-04-10T06:17:24;99252.66;;;4.79;100.00
7888;BME280;3989;48.810;9.208;2023-04-10T06:20:22;99154.75;;;4.30;100.00
7888;BME280;3989;48.810;9.208;2023-04-10T06:25:48;99337.28;;;5.51;100.00
7888;BME280;3989;48.810;9.208;2023-04-10T06:28:20;99266.25;;;4.95;100.00
7888;BME280;3989;48.810;9.208;2023-04-10T06:30:48;99156.94;;;4.45;100.00
7888;BME280;3989;48.810;9.208;2023-04-10T06:33:18;99321.31;;;5.32;100.00
7888;BME280;3989;48.810;9.208;2023-04-10T06:35:46;99191.53;;;4.72;100.00
7888;BME280;3989;48.810;9.208;2023-04-10T06:49:23;99332.16;;;5.99;100.00
7888;BME280;3989;48.810;9.208;2023-04-10T06:51:51;99159.53;;;5.06;100.00
7888;BME280;3989;48.810;9.208;2023-04-10T06:54:38;99295.63;;;6.02;100.00
7888;BME280;3989;48.810;9.208;2023-04-10T06:57:14;99304.31;;;6.23;100.00
7888;BME280;3989;48.810;9.208;2023-04-10T07:03:15;99360.06;;;6.99;100.00
7888;BME280;3989;48.810;9.208;2023-04-10T07:05:49;99357.25;;;7.19;100.00
7888;BME280;3989;48.810;9.208;2023-04-10T07:11:25;99298.19;;;7.45;100.00
7888;BME280;3989;48.810;9.208;2023-04-10T07:13:52;99317.78;;;7.71;100.00
7888;BME280;3989;48.810;9.208;2023-04-10T07:16:23;99342.69;;;8.15;100.00
7888;BME280;3989;48.810;9.208;2023-04-10T07:18:50;99347.25;;;8.32;95.85
7888;BME280;3989;48.810;9.208;2023-04-10T07:21:18;99183.88;;;7.46;90.59
7888;BME280;3989;48.810;9.208;2023-04-10T07:23:45;99246.69;;;8.00;92.89
7888;BME280;3989;48.810;9.208;2023-04-10T07:26:12;99338.88;;;8.80;89.48
7888;BME280;3989;48.810;9.208;2023-04-10T07:28:39;99343.88;;;9.01;81.05
7888;BME280;3989;48.810;9.208;2023-04-10T07:31:06;99273.72;;;8.84;80.58
7888;BME280;3989;48.810;9.208;2023-04-10T07:33:33;99276.69;;;9.07;78.13
7888;BME280;3989;48.810;9.208;2023-04-10T07:36:00;99183.47;;;8.47;70.54
7888;BME280;3989;48.810;9.208;2023-04-10T07:38:28;99355.78;;;9.66;71.77
7888;BME280;3989;48.810;9.208;2023-04-10T07:40:56;99317.63;;;9.65;71.35
7888;BME280;3989;48.810;9.208;2023-04-10T07:43:23;99173.00;;;8.71;65.02
7888;BME280;3989;48.810;9.208;2023-04-10T07:45:50;99337.81;;;9.76;66.43
7888;BME280;3989;48.810;9.208;2023-04-10T07:48:17;99285.59;;;9.57;63.62
7888;BME280;3989;48.810;9.208;2023-04-10T07:50:43;99178.69;;;8.76;63.30
7888;BME280;3989;48.810;9.208;2023-04-10T07:53:10;99225.75;;;9.43;64.96
7888;BME280;3989;48.810;9.208;2023-04-10T07:55:38;99335.69;;;10.29;64.29
7888;BME280;3989;48.810;9.208;2023-04-10T07:58:05;99337.41;;;10.46;63.93
7888;BME280;3989;48.810;9.208;2023-04-10T08:00:32;99335.41;;;10.65;63.26
7888;BME280;3989;48.810;9.208;2023-04-10T08:02:59;99306.22;;;10.63;59.83
7888;BME280;3989;48.810;9.208;2023-04-10T08:05:26;99309.91;;;10.94;59.99
7888;BME280;3989;48.810;9.208;2023-04-10T08:07:52;99277.31;;;10.99;57.98
7888;BME280;3989;48.810;9.208;2023-04-10T08:10:19;99268.31;;;11.08;57.36
7888;BME280;3989;48.810;9.208;2023-04-10T08:12:47;99304.13;;;11.38;55.14
7888;BME280;3989;48.810;9.208;2023-04-10T08:15:14;99311.25;;;11.53;54.99
7888;BME280;3989;48.810;9.208;2023-04-10T08:17:40;99241.38;;;11.34;55.06
7888;BME280;3989;48.810;9.208;2023-04-10T08:20:08;99323.66;;;12.01;53.43
7888;BME280;3989;48.810;9.208;2023-04-10T08:22:35;99319.03;;;12.18;52.20
7888;BME280;3989;48.810;9.208;2023-04-10T08:25:02;99318.59;;;12.37;52.28
7888;BME280;3989;48.810;9.208;2023-04-10T08:27:29;99245.47;;;11.91;50.83
7888;BME280;3989;48.810;9.208;2023-04-10T08:29:57;99153.38;;;11.55;50.66
7888;BME280;3989;48.810;9.208;2023-04-10T08:32:24;99308.66;;;12.69;50.22
7888;BME280;3989;48.810;9.208;2023-04-10T08:34:51;99308.44;;;12.78;49.95
7888;BME280;3989;48.810;9.208;2023-04-10T08:37:18;99309.84;;;12.89;49.57
7888;BME280;3989;48.810;9.208;2023-04-10T08:39:45;99290.72;;;12.92;49.46
7888;BME280;3989;48.810;9.208;2023-04-10T08:42:12;99297.44;;;13.25;47.51
7888;BME280;3989;48.810;9.208;2023-04-10T08:44:39;99228.66;;;12.88;46.50
7888;BME280;3989;48.810;9.208;2023-04-10T08:47:07;99209.91;;;12.88;46.29
7888;BME280;3989;48.810;9.208;2023-04-10T08:49:39;99304.41;;;13.49;46.28
7888;BME280;3989;48.810;9.208;2023-04-10T08:52:07;99293.25;;;13.60;46.28
7888;BME280;3989;48.810;9.208;2023-04-10T08:54:37;99277.16;;;13.60;44.87
7888;BME280;3989;48.810;9.208;2023-04-10T08:57:06;99239.22;;;13.63;44.33
7888;BME280;3989;48.810;9.208;2023-04-10T08:59:32;99293.25;;;14.10;44.49
7888;BME280;3989;48.810;9.208;2023-04-10T09:01:59;99275.94;;;14.13;43.98
7888;BME280;3989;48.810;9.208;2023-04-10T09:04:27;99249.91;;;13.92;43.26
7888;BME280;3989;48.810;9.208;2023-04-10T09:06:53;99293.03;;;14.27;43.82
7888;BME280;3989;48.810;9.208;2023-04-10T09:09:20;99276.84;;;14.20;43.38
7888;BME280;3989;48.810;9.208;2023-04-10T09:11:57;99286.44;;;14.29;43.65
7888;BME280;3989;48.810;9.208;2023-04-10T09:14:29;99287.00;;;14.39;43.56
7888;BME280;3989;48.810;9.208;2023-04-10T09:17:11;99275.16;;;14.55;42.85
7888;BME280;3989;48.810;9.208;2023-04-10T09:19:39;99243.25;;;14.45;42.65
7888;BME280;3989;48.810;9.208;2023-04-10T09:22:06;99280.00;;;14.87;42.03
7888;BME280;3989;48.810;9.208;2023-04-10T09:24:35;99254.75;;;14.82;41.12
7888;BME280;3989;48.810;9.208;2023-04-10T09:27:03;99279.97;;;15.08;41.11
7888;BME280;3989;48.810;9.208;2023-04-10T09:29:38;99277.47;;;15.07;40.67
7888;BME280;3989;48.810;9.208;2023-04-10T09:32:05;99293.41;;;15.08;40.53
7888;BME280;3989;48.810;9.208;2023-04-10T09:34:31;99248.47;;;14.96;40.90
7888;BME280;3989;48.810;9.208;2023-04-10T09:37:00;99232.34;;;14.96;40.62
7888;BME280;3989;48.810;9.208;2023-04-10T09:39:32;99262.22;;;15.14;40.00
7888;BME280;3989;48.810;9.208;2023-04-10T09:41:59;99255.47;;;15.24;40.18
7888;BME280;3989;48.810;9.208;2023-04-10T09:44:30;99217.97;;;15.16;39.59
7888;BME280;3989;48.810;9.208;2023-04-10T09:46:57;99240.44;;;15.37;39.49
7888;BME280;3989;48.810;9.208;2023-04-10T09:49:24;99194.81;;;15.15;39.28
7888;BME280;3989;48.810;9.208;2023-04-10T09:51:51;99225.06;;;15.58;38.63
7888;BME280;3989;48.810;9.208;2023-04-10T09:54:34;99066.81;;;14.73;38.12
7888;BME280;3989;48.810;9.208;2023-04-10T09:57:01;99212.09;;;15.75;38.12
7888;BME280;3989;48.810;9.208;2023-04-10T09:59:29;99215.25;;;15.85;38.12
7888;BME280;3989;48.810;9.208;2023-04-10T10:01:56;99181.03;;;15.66;36.97
7888;BME280;3989;48.810;9.208;2023-04-10T10:04:24;99091.59;;;15.10;36.85
7888;BME280;3989;48.810;9.208;2023-04-10T10:06:51;99202.00;;;15.90;36.49
7888;BME280;3989;48.810;9.208;2023-04-10T10:09:19;99202.69;;;16.05;37.04
7888;BME280;3989;48.810;9.208;2023-04-10T10:11:47;99123.72;;;15.72;36.83
7888;BME280;3989;48.810;9.208;2023-04-10T10:14:17;99190.50;;;16.29;37.05
7888;BME280;3989;48.810;9.208;2023-04-10T10:16:49;99191.56;;;16.35;35.76
7888;BME280;3989;48.810;9.208;2023-04-10T10:19:18;99188.66;;;16.43;36.25
7888;BME280;3989;48.810;9.208;2023-04-10T10:21:48;99138.47;;;16.28;36.24
7888;BME280;3989;48.810;9.208;2023-04-10T10:24:19;99136.03;;;16.53;35.92
7888;BME280;3989;48.810;9.208;2023-04-10T10:26:49;99148.66;;;16.79;35.40
7888;BME280;3989;48.810;9.208;2023-04-10T10:29:17;99094.59;;;16.48;34.92
7888;BME280;3989;48.810;9.208;2023-04-10T10:31:45;99162.94;;;17.06;35.24
7888;BME280;3989;48.810;9.208;2023-04-10T10:34:14;99150.63;;;17.23;34.87
7888;BME280;3989;48.810;9.208;2023-04-10T10:36:41;98969.06;;;16.14;34.67
7888;BME280;3989;48.810;9.208;2023-04-10T10:39:21;99144.25;;;17.68;34.26
7888;BME280;3989;48.810;9.208;2023-04-10T10:41:57;99126.44;;;17.99;34.07
7888;BME280;3989;48.810;9.208;2023-04-10T10:44:32;99138.56;;;18.14;33.57
7888;BME280;3989;48.810;9.208;2023-04-10T10:47:06;99125.69;;;18.41;33.36
7888;BME280;3989;48.810;9.208;2023-04-10T10:49:52;99122.69;;;18.56;32.55
7888;BME280;3989;48.810;9.208;2023-04-10T10:52:37;99123.50;;;18.56;32.18
7888;BME280;3989;48.810;9.208;2023-04-10T10:55:29;99118.75;;;18.52;32.23
7888;BME280;3989;48.810;9.208;2023-04-10T10:58:03;99077.50;;;18.38;32.42
7888;BME280;3989;48.810;9.208;2023-04-10T11:01:04;99108.31;;;18.80;31.82
7888;BME280;3989;48.810;9.208;2023-04-10T11:03:32;99083.13;;;18.61;31.75
7888;BME280;3989;48.810;9.208;2023-04-10T11:06:00;99117.34;;;18.74;32.19
7888;BME280;3989;48.810;9.208;2023-04-10T11:08:35;99107.88;;;18.33;31.92
7888;BME280;3989;48.810;9.208;2023-04-10T11:11:06;99112.56;;;18.20;32.37
7888;BME280;3989;48.810;9.208;2023-04-10T11:13:34;99000.38;;;17.30;32.44
7888;BME280;3989;48.810;9.208;2023-04-10T11:16:02;99108.97;;;18.01;32.60
7888;BME280;3989;48.810;9.208;2023-04-10T11:19:03;99107.63;;;18.10;32.61
7888;BME280;3989;48.810;9.208;2023-04-10T11:21:30;99092.38;;;18.22;32.18
7888;BME280;3989;48.810;9.208;2023-04-10T11:24:07;99045.28;;;17.87;32.20
7888;BME280;3989;48.810;9.208;2023-04-10T11:26:43;98990.41;;;17.68;31.80
7888;BME280;3989;48.810;9.208;2023-04-10T11:29:32;99088.31;;;18.38;31.53
7888;BME280;3989;48.810;9.208;2023-04-10T11:32:00;99087.25;;;18.39;31.28
7888;BME280;3989;48.810;9.208;2023-04-10T11:34:27;99076.94;;;18.29;31.52
7888;BME280;3989;48.810;9.208;2023-04-10T11:36:55;99053.69;;;18.28;30.88
7888;BME280;3989;48.810;9.208;2023-04-10T11:39:21;99087.63;;;18.43;30.02
7888;BME280;3989;48.810;9.208;2023-04-10T11:41:51;99089.94;;;18.39;30.89
7888;BME280;3989;48.810;9.208;2023-04-10T11:44:26;99091.16;;;18.43;31.20
7888;BME280;3989;48.810;9.208;2023-04-10T11:46:53;99088.00;;;18.53;31.10
7888;BME280;3989;48.810;9.208;2023-04-10T11:49:21;99079.28;;;18.51;29.49
7888;BME280;3989;48.810;9.208;2023-04-10T11:51:49;99083.94;;;18.37;29.01
7888;BME280;3989;48.810;9.208;2023-04-10T11:54:17;99058.75;;;18.18;29.35
7888;BME280;3989;48.810;9.208;2023-04-10T11:56:57;99077.22;;;18.46;29.18
7888;BME280;3989;48.810;9.208;2023-04-10T11:59:24;99073.66;;;18.52;29.12
7888;BME280;3989;48.810;9.208;2023-04-10T12:01:52;99065.84;;;18.62;28.97
7888;BME280;3989;48.810;9.208;2023-04-10T12:04:21;98995.88;;;18.29;28.64
7888;BME280;3989;48.810;9.208;2023-04-10T12:06:49;99029.75;;;18.75;27.84
7888;BME280;3989;48.810;9.208;2023-04-10T12:09:18;99051.00;;;18.90;27.71
7888;BME280;3989;48.810;9.208;2023-04-10T12:11:49;99047.41;;;18.96;28.14
7888;BME280;3989;48.810;9.208;2023-04-10T12:14:22;99017.34;;;18.85;27.62
7888;BME280;3989;48.810;9.208;2023-04-10T12:16:49;99006.28;;;18.87;27.71
7888;BME280;3989;48.810;9.208;2023-04-10T12:19:17;98980.69;;;18.90;26.62
7888;BME280;3989;48.810;9.208;2023-04-10T12:21:44;99013.69;;;19.28;25.30
7888;BME280;3989;48.810;9.208;2023-04-10T12:24:12;99011.72;;;19.35;25.41
7888;BME280;3989;48.810;9.208;2023-04-10T12:26:46;99020.00;;;19.40;25.29
7888;BME280;3989;48.810;9.208;2023-04-10T12:29:12;99017.38;;;19.63;24.31
7888;BME280;3989;48.810;9.208;2023-04-10T12:31:41;98913.16;;;19.13;24.58
7888;BME280;3989;48.810;9.208;2023-04-10T12:34:07;98979.00;;;19.66;24.82
7888;BME280;3989;48.810;9.208;2023-04-10T12:36:35;99004.63;;;20.05;24.41
7888;BME280;3989;48.810;9.208;2023-04-10T12:39:02;98977.06;;;20.08;23.99
7888;BME280;3989;48.810;9.208;2023-04-10T12:41:30;99002.63;;;20.59;24.18
7888;BME280;3989;48.810;9.208;2023-04-10T12:44:08;98986.28;;;20.54;23.47
7888;BME280;3989;48.810;9.208;2023-04-10T12:46:35;98977.75;;;20.62;23.70
7888;BME280;3989;48.810;9.208;2023-04-10T12:49:10;98972.94;;;20.52;23.83
7888;BME280;3989;48.810;9.208;2023-04-10T12:51:40;98986.00;;;20.55;23.68
7888;BME280;3989;48.810;9.208;2023-04-10T12:54:07;98981.25;;;20.85;23.87
7888;BME280;3989;48.810;9.208;2023-04-10T12:56:39;98974.72;;;20.98;23.57
7888;BME280;3989;48.810;9.208;2023-04-10T12:59:06;98961.53;;;21.30;23.43
7888;BME280;3989;48.810;9.208;2023-04-10T13:01:32;98978.13;;;21.78;23.53
7888;BME280;3989;48.810;9.208;2023-04-10T13:03:59;98892.13;;;21.51;23.06
7888;BME280;3989;48.810;9.208;2023-04-10T13:06:27;98955.38;;;21.96;22.85
7888;BME280;3989;48.810;9.208;2023-04-10T13:08:54;98950.97;;;21.78;22.72
7888;BME280;3989;48.810;9.208;2023-04-10T13:11:21;98977.00;;;21.91;22.44
7888;BME280;3989;48.810;9.208;2023-04-10T13:13:49;98919.28;;;21.51;22.42
7888;BME280;3989;48.810;9.208;2023-04-10T13:16:16;98935.91;;;21.54;22.59
7888;BME280;3989;48.810;9.208;2023-04-10T13:18:43;98914.09;;;21.66;22.99
7888;BME280;3989;48.810;9.208;2023-04-10T13:21:10;98960.97;;;22.23;23.35
7888;BME280;3989;48.810;9.208;2023-04-10T13:23:37;98944.25;;;22.36;23.09
7888;BME280;3989;48.810;9.208;2023-04-10T13:26:06;98932.00;;;22.33;22.92
7888;BME280;3989;48.810;9.208;2023-04-10T13:28:33;98948.59;;;22.15;23.04
7888;BME280;3989;48.810;9.208;2023-04-10T13:30:59;98916.84;;;21.99;23.01
7888;BME280;3989;48.810;9.208;2023-04-10T13:33:26;98954.97;;;22.42;23.17
7888;BME280;3989;48.810;9.208;2023-04-10T13:35:52;98864.06;;;21.95;22.92
7888;BME280;3989;48.810;9.208;2023-04-10T13:38:19;98948.09;;;22.57;22.98
7888;BME280;3989;48.810;9.208;2023-04-10T13:40:47;98939.78;;;22.46;23.26
7888;BME280;3989;48.810;9.208;2023-04-10T13:43:13;98944.56;;;22.18;22.94
7888;BME280;3989;48.810;9.208;2023-04-10T13:45:40;98951.66;;;22.02;23.17
7888;BME280;3989;48.810;9.208;2023-04-10T13:48:10;98866.19;;;21.43;23.34
7888;BME280;3989;48.810;9.208;2023-04-10T13:50:36;98922.16;;;21.61;23.35
7888;BME280;3989;48.810;9.208;2023-04-10T13:53:03;98802.63;;;20.77;23.79
7888;BME280;3989;48.810;9.208;2023-04-10T13:55:31;98832.88;;;21.14;23.73
7888;BME280;3989;48.810;9.208;2023-04-10T13:58:01;98923.50;;;21.91;23.89
7888;BME280;3989;48.810;9.208;2023-04-10T14:00:41;98821.38;;;21.40;23.78
7888;BME280;3989;48.810;9.208;2023-04-10T14:03:08;98874.03;;;21.89;23.53
7888;BME280;3989;48.810;9.208;2023-04-10T14:05:43;98915.44;;;22.13;23.70
7888;BME280;3989;48.810;9.208;2023-04-10T14:08:15;98865.22;;;22.21;23.96
7888;BME280;3989;48.810;9.208;2023-04-10T14:10:41;98875.88;;;22.44;23.77
7888;BME280;3989;48.810;9.208;2023-04-10T14:13:09;98922.38;;;22.64;23.44
7888;BME280;3989;48.810;9.208;2023-04-10T14:15:36;98907.59;;;22.77;23.86
7888;BME280;3989;48.810;9.208;2023-04-10T14:18:02;98862.41;;;22.54;23.52
7888;BME280;3989;48.810;9.208;2023-04-10T14:20:29;98863.66;;;22.46;23.36
7888;BME280;3989;48.810;9.208;2023-04-10T14:22:55;98824.63;;;22.14;23.32
7888;BME280;3989;48.810;9.208;2023-04-10T14:25:22;98885.03;;;22.38;23.56
7888;BME280;3989;48.810;9.208;2023-04-10T14:27:48;98880.59;;;22.32;23.62
7888;BME280;3989;48.810;9.208;2023-04-10T14:30:16;98849.72;;;22.00;24.24
7888;BME280;3989;48.810;9.208;2023-04-10T14:32:43;98877.66;;;22.17;23.64
7888;BME280;3989;48.810;9.208;2023-04-10T14:35:10;98855.47;;;21.86;24.15
7888;BME280;3989;48.810;9.208;2023-04-10T14:37:37;98878.28;;;21.85;24.25
7888;BME280;3989;48.810;9.208;2023-04-10T14:40:05;98868.91;;;21.76;24.39
7888;BME280;3989;48.810;9.208;2023-04-10T14:42:31;98866.78;;;21.95;24.51
7888;BME280;3989;48.810;9.208;2023-04-10T14:44:58;98866.00;;;22.16;24.15
7888;BME280;3989;48.810;9.208;2023-04-10T14:47:26;98865.88;;;21.73;24.27
7888;BME280;3989;48.810;9.208;2023-04-10T14:49:52;98860.59;;;21.83;24.43
7888;BME280;3989;48.810;9.208;2023-04-10T14:52:20;98853.78;;;22.19;24.43
7888;BME280;3989;48.810;9.208;2023-04-10T14:54:47;98674.16;;;21.77;23.70
7888;BME280;3989;48.810;9.208;2023-04-10T14:57:14;98845.97;;;23.19;23.30
7888;BME280;3989;48.810;9.208;2023-04-10T14:59:41;98819.69;;;23.35;23.31
7888;BME280;3989;48.810;9.208;2023-04-10T15:02:08;98845.94;;;24.25;22.62
7888;BME280;3989;48.810;9.208;2023-04-10T15:04:36;98847.53;;;24.78;21.85
7888;BME280;3989;48.810;9.208;2023-04-10T15:07:02;98843.25;;;25.22;21.61
7888;BME280;3989;48.810;9.208;2023-04-10T15:09:29;98844.84;;;24.98;21.83
7888;BME280;3989;48.810;9.208;2023-04-10T15:11:56;98806.06;;;24.86;21.75
7888;BME280;3989;48.810;9.208;2023-04-10T15:14:23;98730.47;;;24.04;21.94
7888;BME280;3989;48.810;9.208;2023-04-10T15:16:49;98790.59;;;24.24;21.91
7888;BME280;3989;48.810;9.208;2023-04-10T15:19:16;98779.41;;;24.26;22.28